createdAt,value
2022-10-23T00:03:31.137Z,85.75
2022-10-23T00:08:39.081Z,85.81
2022-10-23T00:13:47.045Z,85.83
2022-10-23T00:18:54.576Z,85.94
2022-10-23T00:24:01.844Z,86.01
2022-10-23T00:29:09.530Z,86.07
2022-10-23T00:34:17.604Z,86.12
2022-10-23T00:39:24.938Z,86.18
2022-10-23T00:45:14.856Z,86.22
2022-10-23T00:50:25.335Z,86.21
2022-10-23T00:55:34.284Z,86.32
2022-10-23T01:00:48.573Z,86.38
2022-10-23T01:06:02.520Z,86.45
2022-10-23T01:11:17.010Z,86.47
2022-10-23T01:16:29.589Z,86.52
2022-10-23T01:21:47.020Z,86.54
2022-10-23T01:27:19.458Z,86.55
2022-10-23T01:32:33.415Z,86.58
2022-10-23T01:37:44.672Z,86.55
2022-10-23T01:42:53.288Z,86.64
2022-10-23T01:48:05.544Z,86.24
2022-10-23T01:53:13.776Z,86.44
2022-10-23T01:58:23.590Z,86.48
2022-10-23T02:03:33.382Z,86.47
2022-10-23T02:08:41.176Z,86.45
2022-10-23T02:13:53.355Z,86.44
2022-10-23T02:19:09.779Z,86.39
2022-10-23T02:24:19.024Z,86.35
2022-10-23T02:29:31.032Z,86.34
2022-10-23T02:34:39.841Z,86.30
2022-10-23T02:39:49.723Z,86.27
2022-10-23T02:45:07.642Z,86.21
2022-10-23T02:50:27.458Z,86.13
2022-10-23T02:55:45.663Z,86.08
2022-10-23T03:00:57.916Z,85.91
2022-10-23T03:06:05.842Z,85.82
2022-10-23T03:11:14.146Z,85.75
2022-10-23T03:16:21.624Z,85.73
2022-10-23T03:21:31.689Z,85.69
2022-10-23T03:26:38.801Z,85.51
2022-10-23T03:31:46.494Z,85.54
2022-10-23T03:36:53.919Z,85.53
2022-10-23T03:42:01.757Z,85.52
2022-10-23T03:47:12.117Z,85.50
2022-10-23T03:52:19.723Z,85.46
2022-10-23T03:57:26.977Z,85.45
2022-10-23T04:02:34.456Z,85.40
2022-10-23T04:07:42.591Z,85.35
2022-10-23T04:12:51.039Z,85.28
2022-10-23T04:17:58.377Z,85.24
2022-10-23T04:23:05.991Z,85.20
2022-10-23T04:28:14.836Z,85.15
2022-10-23T04:33:22.427Z,85.10
2022-10-23T04:38:31.867Z,85.07
2022-10-23T04:43:40.958Z,85.05
2022-10-23T04:48:48.357Z,85.03
2022-10-23T04:54:04.372Z,85.03
2022-10-23T04:59:37.946Z,85.02
2022-10-23T05:04:45.933Z,85.01
2022-10-23T05:10:13.077Z,84.98
2022-10-23T05:15:29.038Z,84.98
2022-10-23T05:20:38.853Z,84.98
2022-10-23T05:25:48.987Z,84.95
2022-10-23T05:30:59.606Z,84.99
2022-10-23T05:36:10.858Z,85.00
2022-10-23T05:41:18.607Z,85.03
2022-10-23T05:46:28.309Z,85.04
2022-10-23T05:51:58.829Z,85.02
2022-10-23T06:02:25.473Z,85.07
2022-10-23T06:07:42.619Z,85.09
2022-10-23T06:12:50.327Z,85.11
2022-10-23T06:17:58.149Z,85.11
2022-10-23T06:23:05.781Z,85.09
2022-10-23T06:28:46.036Z,85.04
2022-10-23T06:33:53.237Z,85.06
2022-10-23T06:44:37.840Z,85.09
2022-10-23T06:49:50.495Z,85.11
2022-10-23T06:54:57.437Z,85.17
2022-10-23T07:00:11.675Z,85.20
2022-10-23T07:05:45.645Z,85.18
2022-10-23T07:10:53.494Z,85.27
2022-10-23T07:16:01.209Z,85.31
2022-10-23T07:21:09.674Z,85.33
2022-10-23T07:26:18.473Z,85.33
2022-10-23T07:31:28.206Z,85.33
2022-10-23T07:36:55.119Z,85.32
2022-10-23T07:42:03.020Z,85.28
2022-10-23T07:47:10.599Z,85.24
2022-10-23T07:52:19.378Z,85.21
2022-10-23T07:57:45.712Z,85.15
2022-10-23T08:03:13.140Z,85.05
2022-10-23T08:08:20.994Z,85.00
2022-10-23T08:13:28.622Z,84.98
2022-10-23T08:18:41.442Z,84.94
2022-10-23T08:23:48.876Z,84.88
2022-10-23T08:28:57.299Z,84.84
2022-10-23T08:34:05.026Z,84.76
2022-10-23T08:39:13.239Z,84.65
2022-10-23T08:44:34.518Z,84.60
2022-10-23T08:49:49.625Z,84.56
2022-10-23T08:55:15.750Z,84.49
2022-10-23T09:00:23.391Z,84.46
2022-10-23T09:05:34.109Z,84.46
2022-10-23T09:11:01.202Z,84.41
2022-10-23T09:16:16.655Z,84.36
2022-10-23T09:21:26.869Z,84.25
2022-10-23T09:26:34.794Z,84.18
2022-10-23T09:31:52.603Z,84.11
2022-10-23T09:37:03.532Z,84.03
2022-10-23T09:42:26.555Z,83.99
2022-10-23T09:47:33.872Z,84.00
2022-10-23T09:52:42.648Z,83.98
2022-10-23T09:57:51.247Z,83.94
2022-10-23T10:03:02.759Z,83.89
2022-10-23T10:08:24.592Z,83.82
2022-10-23T10:13:48.483Z,83.82
2022-10-23T10:19:05.652Z,83.83
2022-10-23T10:24:20.549Z,83.76
2022-10-23T10:29:41.730Z,83.71
2022-10-23T10:34:57.123Z,83.70
2022-10-23T10:40:11.095Z,83.69
2022-10-23T10:45:33.056Z,83.62
2022-10-23T10:50:49.436Z,83.56
2022-10-23T10:56:03.719Z,83.51
2022-10-23T11:01:18.374Z,83.48
2022-10-23T11:06:30.291Z,83.41
2022-10-23T11:11:42.056Z,83.36
2022-10-23T11:16:53.993Z,83.30
2022-10-23T11:22:07.328Z,83.27
2022-10-23T11:27:29.768Z,83.24
2022-10-23T11:32:59.561Z,83.24
2022-10-23T11:38:17.900Z,83.18
2022-10-23T11:43:33.888Z,83.10
2022-10-23T11:48:43.213Z,83.04
2022-10-23T11:53:51.056Z,82.97
2022-10-23T11:59:00.412Z,82.89
2022-10-23T12:04:19.569Z,82.83
2022-10-23T12:09:34.244Z,82.77
2022-10-23T12:14:43.866Z,82.72
2022-10-23T12:19:53.090Z,82.71
2022-10-23T12:25:07.758Z,82.76
2022-10-23T12:30:25.109Z,82.78
2022-10-23T12:36:02.565Z,82.81
2022-10-23T12:41:15.965Z,82.85
2022-10-23T12:46:33.517Z,82.89
2022-10-23T12:51:40.645Z,82.97
2022-10-23T12:56:48.516Z,83.06
2022-10-23T13:01:56.755Z,83.10
2022-10-23T13:07:05.524Z,83.09
2022-10-23T13:12:22.848Z,83.06
2022-10-23T13:17:41.079Z,83.03
2022-10-23T13:22:49.492Z,83.04
2022-10-23T13:28:22.958Z,82.99
2022-10-23T13:33:36.173Z,82.93
2022-10-23T13:38:45.460Z,82.88
2022-10-23T13:43:53.116Z,82.88
2022-10-23T13:49:00.443Z,82.86
2022-10-23T13:54:08.183Z,82.84
2022-10-23T13:59:16.017Z,82.87
2022-10-23T14:04:24.320Z,82.90
2022-10-23T14:09:31.966Z,82.89
2022-10-23T14:14:39.208Z,82.86
2022-10-23T14:19:46.766Z,82.86
2022-10-23T14:24:54.316Z,82.87
2022-10-23T14:30:01.498Z,82.88
2022-10-23T14:35:10.345Z,82.89
2022-10-23T14:40:18.037Z,82.87
2022-10-23T14:45:25.723Z,82.86
2022-10-23T14:50:33.855Z,82.82
2022-10-23T14:55:41.599Z,82.77
2022-10-23T15:00:58.807Z,82.72
2022-10-23T15:06:08.105Z,82.69
2022-10-23T15:11:15.444Z,82.66
2022-10-23T15:16:23.553Z,82.64
2022-10-23T15:21:30.762Z,82.64
2022-10-23T15:26:38.983Z,82.63
2022-10-23T15:31:48.368Z,82.61
2022-10-23T15:36:57.451Z,82.59
2022-10-23T15:42:06.781Z,82.54
2022-10-23T15:47:13.976Z,82.53
2022-10-23T15:52:21.337Z,82.51
2022-10-23T15:57:28.764Z,82.51
2022-10-23T16:02:36.722Z,82.53
2022-10-23T16:07:44.055Z,82.56
2022-10-23T16:12:51.199Z,82.57
2022-10-23T16:17:58.501Z,82.57
2022-10-23T16:23:05.652Z,82.59
2022-10-23T16:28:12.979Z,82.59
2022-10-23T16:33:20.420Z,82.57
2022-10-23T16:38:28.918Z,82.57
2022-10-23T16:43:36.174Z,82.56
2022-10-23T16:48:51.540Z,82.57
2022-10-23T16:53:59.489Z,82.56
2022-10-23T16:59:06.805Z,82.55
2022-10-23T17:04:13.999Z,82.51
2022-10-23T17:09:22.128Z,82.50
2022-10-23T17:14:30.924Z,82.51
2022-10-23T17:19:46.221Z,82.54
2022-10-23T17:24:54.523Z,82.54
2022-10-23T17:30:02.008Z,82.56
2022-10-23T17:35:11.127Z,82.57
2022-10-23T17:40:22.774Z,82.55
2022-10-23T17:45:34.542Z,82.45
2022-10-23T17:50:42.272Z,82.30
2022-10-23T17:55:49.413Z,82.13
2022-10-23T18:00:56.595Z,82.01
2022-10-23T18:06:10.528Z,81.96
2022-10-23T18:11:21.695Z,81.93
2022-10-23T18:16:29.405Z,81.93
2022-10-23T18:21:38.291Z,81.92
2022-10-23T18:26:46.536Z,81.81
2022-10-23T18:31:53.812Z,81.68
2022-10-23T18:37:01.294Z,81.53
2022-10-23T18:42:08.604Z,81.35
2022-10-23T18:52:28.268Z,81.17
2022-10-23T18:57:35.769Z,81.12
2022-10-23T19:02:43.156Z,81.04
2022-10-23T19:07:51.897Z,81.05
2022-10-23T19:12:59.520Z,81.17
2022-10-23T19:18:07.800Z,81.31
2022-10-23T19:23:16.031Z,81.42
2022-10-23T19:28:23.720Z,81.51
2022-10-23T19:33:31.120Z,81.58
2022-10-23T19:38:40.661Z,81.64
2022-10-23T19:43:48.140Z,81.71
2022-10-23T19:48:55.523Z,81.69
2022-10-23T19:54:03.140Z,81.58
2022-10-23T19:59:13.488Z,81.40
2022-10-23T20:04:21.055Z,81.14
2022-10-23T20:09:28.344Z,80.74
2022-10-23T20:14:36.273Z,80.32
2022-10-23T20:19:45.091Z,80.02
2022-10-23T20:24:53.269Z,79.87
2022-10-23T20:30:00.405Z,79.87
2022-10-23T20:35:09.367Z,79.87
2022-10-23T20:40:17.155Z,79.93
2022-10-23T20:45:24.346Z,80.11
2022-10-23T20:50:32.346Z,80.48
2022-10-23T20:55:44.433Z,80.87
2022-10-23T21:06:03.980Z,81.62
2022-10-23T21:11:15.135Z,81.89
2022-10-23T21:16:28.446Z,82.10
2022-10-23T21:21:37.634Z,82.23
2022-10-23T21:26:45.568Z,82.38
2022-10-23T21:31:57.397Z,82.50
2022-10-23T21:37:14.448Z,82.63
2022-10-23T21:42:22.438Z,82.75
2022-10-23T21:47:29.912Z,82.90
2022-10-23T21:52:37.764Z,83.01
2022-10-23T21:57:45.763Z,83.08
2022-10-23T22:02:53.519Z,83.16
2022-10-23T22:08:00.792Z,83.22
2022-10-23T22:13:08.199Z,83.27
2022-10-23T22:18:15.825Z,83.32
2022-10-23T22:23:23.109Z,83.35
2022-10-23T22:28:30.360Z,83.43
2022-10-23T22:33:37.709Z,83.49
2022-10-23T22:38:46.035Z,83.51
2022-10-23T22:43:57.980Z,83.50
2022-10-23T22:54:17.922Z,83.43
2022-10-23T22:59:25.184Z,83.41
2022-10-23T23:04:37.946Z,83.36
2022-10-23T23:09:47.683Z,83.32
2022-10-23T23:14:54.725Z,83.28
2022-10-23T23:20:02.124Z,83.25
2022-10-23T23:25:10.771Z,83.23
2022-10-23T23:30:18.080Z,83.25
2022-10-23T23:35:25.953Z,83.28
2022-10-23T23:40:33.329Z,83.32
2022-10-23T23:45:40.440Z,83.37
2022-10-23T23:50:47.703Z,83.45
2022-10-23T23:55:54.966Z,83.50
